sensor_id;sensor_type;location;lat;lon;timestamp;pressure;altitude;pressure_sealevel;temperature;humidity
24788;BME280;12883;52.662;5.196;2023-02-20T00:01:00;102365.22;;;8.24;100.00
24788;BME280;12883;52.662;5.196;2023-02-20T00:03:26;102377.03;;;8.30;100.00
24788;BME280;12883;52.662;5.196;2023-02-20T00:05:52;102387.28;;;8.33;100.00
24788;BME280;12883;52.662;5.196;2023-02-20T00:08:17;102383.94;;;8.40;100.00
24788;BME280;12883;52.662;5.196;2023-02-20T00:10:42;102380.97;;;8.43;100.00
24788;BME280;12883;52.662;5.196;2023-02-20T00:13:08;102374.44;;;8.47;100.00
24788;BME280;12883;52.662;5.196;2023-02-20T00:15:33;102360.56;;;8.36;100.00
24788;BME280;12883;52.662;5.196;2023-02-20T00:17:58;102360.34;;;8.47;100.00
24788;BME280;12883;52.662;5.196;2023-02-20T00:20:24;102353.22;;;8.57;100.00
24788;BME280;12883;52.662;5.196;2023-02-20T00:22:51;102352.81;;;8.52;100.00
24788;BME280;12883;52.662;5.196;2023-02-20T00:25:18;102344.06;;;8.51;100.00
24788;BME280;12883;52.662;5.196;2023-02-20T00:27:44;102340.88;;;8.48;100.00
24788;BME280;12883;52.662;5.196;2023-02-20T00:30:14;102342.94;;;8.54;100.00
24788;BME280;12883;52.662;5.196;2023-02-20T00:32:39;102342.94;;;8.54;100.00
24788;BME280;12883;52.662;5.196;2023-02-20T00:35:05;102330.41;;;8.56;100.00
24788;BME280;12883;52.662;5.196;2023-02-20T00:37:31;102322.91;;;8.51;100.00
24788;BME280;12883;52.662;5.196;2023-02-20T00:39:56;102312.31;;;8.51;100.00
24788;BME280;12883;52.662;5.196;2023-02-20T00:42:21;102306.06;;;8.52;100.00
24788;BME280;12883;52.662;5.196;2023-02-20T00:44:47;102304.53;;;8.50;100.00
24788;BME280;12883;52.662;5.196;2023-02-20T00:47:12;102298.72;;;8.46;100.00
24788;BME280;12883;52.662;5.196;2023-02-20T00:49:37;102286.28;;;8.47;100.00
24788;BME280;12883;52.662;5.196;2023-02-20T00:52:03;102288.13;;;8.46;100.00
24788;BME280;12883;52.662;5.196;2023-02-20T00:54:28;102275.63;;;8.39;100.00
24788;BME280;12883;52.662;5.196;2023-02-20T00:56:53;102245.66;;;8.30;100.00
24788;BME280;12883;52.662;5.196;2023-02-20T00:59:19;102277.81;;;8.43;100.00
24788;BME280;12883;52.662;5.196;2023-02-20T01:01:44;102268.22;;;8.42;100.00
24788;BME280;12883;52.662;5.196;2023-02-20T01:04:10;102265.22;;;8.37;100.00
24788;BME280;12883;52.662;5.196;2023-02-20T01:06:35;102265.59;;;8.42;100.00
24788;BME280;12883;52.662;5.196;2023-02-20T01:09:00;102265.06;;;8.39;100.00
24788;BME280;12883;52.662;5.196;2023-02-20T01:11:26;102262.28;;;8.40;100.00
24788;BME280;12883;52.662;5.196;2023-02-20T01:13:51;102265.91;;;8.39;100.00
24788;BME280;12883;52.662;5.196;2023-02-20T01:16:16;102273.84;;;8.39;100.00
24788;BME280;12883;52.662;5.196;2023-02-20T01:18:42;102256.75;;;8.34;100.00
24788;BME280;12883;52.662;5.196;2023-02-20T01:21:08;102265.91;;;8.39;100.00
24788;BME280;12883;52.662;5.196;2023-02-20T01:23:33;102251.09;;;8.46;100.00
24788;BME280;12883;52.662;5.196;2023-02-20T01:25:58;102260.81;;;8.46;100.00
24788;BME280;12883;52.662;5.196;2023-02-20T01:28:24;102249.13;;;8.48;100.00
24788;BME280;12883;52.662;5.196;2023-02-20T01:30:49;102240.50;;;8.46;100.00
24788;BME280;12883;52.662;5.196;2023-02-20T01:33:14;102187.25;;;8.14;100.00
24788;BME280;12883;52.662;5.196;2023-02-20T01:35:40;102229.03;;;8.55;100.00
24788;BME280;12883;52.662;5.196;2023-02-20T01:38:05;102229.72;;;8.57;100.00
24788;BME280;12883;52.662;5.196;2023-02-20T01:40:32;102216.19;;;8.60;100.00
24788;BME280;12883;52.662;5.196;2023-02-20T01:42:58;102224.50;;;8.65;100.00
24788;BME280;12883;52.662;5.196;2023-02-20T01:47:53;102210.34;;;8.74;100.00
24788;BME280;12883;52.662;5.196;2023-02-20T01:50:23;102218.88;;;8.68;100.00
24788;BME280;12883;52.662;5.196;2023-02-20T01:52:52;102214.97;;;8.72;100.00
24788;BME280;12883;52.662;5.196;2023-02-20T01:55:26;102214.66;;;8.75;100.00
24788;BME280;12883;52.662;5.196;2023-02-20T01:58:00;102193.81;;;8.72;100.00
24788;BME280;12883;52.662;5.196;2023-02-20T02:00:27;102188.03;;;8.77;100.00
24788;BME280;12883;52.662;5.196;2023-02-20T02:03:19;102194.16;;;8.77;100.00
24788;BME280;12883;52.662;5.196;2023-02-20T02:05:46;102178.91;;;8.71;100.00
24788;BME280;12883;52.662;5.196;2023-02-20T02:08:14;102176.16;;;8.81;100.00
24788;BME280;12883;52.662;5.196;2023-02-20T02:11:04;102186.44;;;8.84;100.00
24788;BME280;12883;52.662;5.196;2023-02-20T02:13:31;102175.84;;;8.84;100.00
24788;BME280;12883;52.662;5.196;2023-02-20T02:16:20;102152.66;;;8.78;100.00
24788;BME280;12883;52.662;5.196;2023-02-20T02:24:42;102179.06;;;8.95;100.00
24788;BME280;12883;52.662;5.196;2023-02-20T02:38:07;102151.88;;;9.11;100.00
24788;BME280;12883;52.662;5.196;2023-02-20T02:40:41;102144.59;;;9.13;100.00
24788;BME280;12883;52.662;5.196;2023-02-20T02:43:19;102144.94;;;9.10;100.00
24788;BME280;12883;52.662;5.196;2023-02-20T02:45:54;102141.63;;;9.16;100.00
24788;BME280;12883;52.662;5.196;2023-02-20T02:48:36;102135.53;;;9.15;100.00
24788;BME280;12883;52.662;5.196;2023-02-20T02:51:09;102141.81;;;9.14;100.00
24788;BME280;12883;52.662;5.196;2023-02-20T02:53:34;102140.66;;;9.17;100.00
24788;BME280;12883;52.662;5.196;2023-02-20T02:56:00;102106.63;;;8.96;100.00
24788;BME280;12883;52.662;5.196;2023-02-20T02:58:49;102155.38;;;9.19;100.00
24788;BME280;12883;52.662;5.196;2023-02-20T03:01:19;102146.47;;;9.20;100.00
24788;BME280;12883;52.662;5.196;2023-02-20T03:03:46;102133.25;;;9.20;100.00
24788;BME280;12883;52.662;5.196;2023-02-20T03:06:25;102132.91;;;9.23;100.00
24788;BME280;12883;52.662;5.196;2023-02-20T03:08:55;102128.91;;;9.19;100.00
24788;BME280;12883;52.662;5.196;2023-02-20T03:11:29;102115.66;;;9.19;100.00
24788;BME280;12883;52.662;5.196;2023-02-20T03:13:59;102109.59;;;9.27;100.00
24788;BME280;12883;52.662;5.196;2023-02-20T03:16:52;102116.03;;;9.24;100.00
24788;BME280;12883;52.662;5.196;2023-02-20T03:19:31;102120.19;;;9.27;100.00
24788;BME280;12883;52.662;5.196;2023-02-20T03:21:58;102110.72;;;9.24;100.00
24788;BME280;12883;52.662;5.196;2023-02-20T03:24:26;102112.09;;;9.28;100.00
24788;BME280;12883;52.662;5.196;2023-02-20T03:26:55;102113.22;;;9.26;100.00
24788;BME280;12883;52.662;5.196;2023-02-20T03:29:26;102116.25;;;9.31;100.00
24788;BME280;12883;52.662;5.196;2023-02-20T03:31:59;102122.97;;;9.25;100.00
24788;BME280;12883;52.662;5.196;2023-02-20T03:34:47;102105.91;;;9.20;100.00
24788;BME280;12883;52.662;5.196;2023-02-20T03:37:34;102106.78;;;9.28;100.00
24788;BME280;12883;52.662;5.196;2023-02-20T03:40:20;102136.44;;;9.32;100.00
24788;BME280;12883;52.662;5.196;2023-02-20T03:43:10;102119.03;;;9.29;100.00
24788;BME280;12883;52.662;5.196;2023-02-20T03:45:50;102119.66;;;9.23;100.00
24788;BME280;12883;52.662;5.196;2023-02-20T03:48:42;102101.13;;;9.23;100.00
24788;BME280;12883;52.662;5.196;2023-02-20T03:51:07;102106.09;;;9.26;100.00
24788;BME280;12883;52.662;5.196;2023-02-20T03:53:33;102091.03;;;9.27;100.00
24788;BME280;12883;52.662;5.196;2023-02-20T03:56:02;102084.56;;;9.21;100.00
24788;BME280;12883;52.662;5.196;2023-02-20T03:58:30;102098.16;;;9.26;100.00
24788;BME280;12883;52.662;5.196;2023-02-20T04:01:01;102098.22;;;9.34;100.00
24788;BME280;12883;52.662;5.196;2023-02-20T04:03:32;102082.47;;;9.33;100.00
24788;BME280;12883;52.662;5.196;2023-02-20T04:06:01;102083.94;;;9.27;100.00
24788;BME280;12883;52.662;5.196;2023-02-20T04:08:41;102077.69;;;9.36;100.00
24788;BME280;12883;52.662;5.196;2023-02-20T04:11:34;102083.13;;;9.35;100.00
24788;BME280;12883;52.662;5.196;2023-02-20T04:14:00;102080.78;;;9.24;100.00
24788;BME280;12883;52.662;5.196;2023-02-20T04:16:27;102064.56;;;9.27;100.00
24788;BME280;12883;52.662;5.196;2023-02-20T04:18:53;102076.81;;;9.28;100.00
24788;BME280;12883;52.662;5.196;2023-02-20T04:21:34;102067.72;;;9.30;100.00
24788;BME280;12883;52.662;5.196;2023-02-20T04:24:06;102064.91;;;9.32;100.00
24788;BME280;12883;52.662;5.196;2023-02-20T04:26:34;102065.72;;;9.32;100.00
24788;BME280;12883;52.662;5.196;2023-02-20T04:29:00;102050.47;;;9.26;100.00
24788;BME280;12883;52.662;5.196;2023-02-20T04:31:26;102057.28;;;9.29;100.00
24788;BME280;12883;52.662;5.196;2023-02-20T04:33:51;102020.94;;;9.05;100.00
24788;BME280;12883;52.662;5.196;2023-02-20T04:36:17;102046.19;;;9.33;100.00
24788;BME280;12883;52.662;5.196;2023-02-20T04:38:42;102051.50;;;9.33;100.00
24788;BME280;12883;52.662;5.196;2023-02-20T04:41:08;102052.66;;;9.31;100.00
24788;BME280;12883;52.662;5.196;2023-02-20T04:43:33;102070.53;;;9.29;100.00
24788;BME280;12883;52.662;5.196;2023-02-20T04:45:58;102072.69;;;9.33;100.00
24788;BME280;12883;52.662;5.196;2023-02-20T04:48:24;102055.47;;;9.29;100.00
24788;BME280;12883;52.662;5.196;2023-02-20T04:50:49;102060.78;;;9.29;100.00
24788;BME280;12883;52.662;5.196;2023-02-20T04:53:15;102066.41;;;9.34;100.00
24788;BME280;12883;52.662;5.196;2023-02-20T04:55:40;102059.44;;;9.33;100.00
24788;BME280;12883;52.662;5.196;2023-02-20T04:58:05;102072.88;;;9.32;100.00
24788;BME280;12883;52.662;5.196;2023-02-20T05:00:31;102071.03;;;9.32;100.00
24788;BME280;12883;52.662;5.196;2023-02-20T05:02:57;102070.03;;;9.33;100.00
24788;BME280;12883;52.662;5.196;2023-02-20T05:05:27;102076.31;;;9.32;100.00
24788;BME280;12883;52.662;5.196;2023-02-20T05:07:57;102081.97;;;9.29;100.00
24788;BME280;12883;52.662;5.196;2023-02-20T05:10:24;102077.16;;;9.25;100.00
24788;BME280;12883;52.662;5.196;2023-02-20T05:12:50;102072.34;;;9.28;100.00
24788;BME280;12883;52.662;5.196;2023-02-20T05:15:17;102077.28;;;9.23;100.00
24788;BME280;12883;52.662;5.196;2023-02-20T05:17:43;102072.69;;;9.33;100.00
24788;BME280;12883;52.662;5.196;2023-02-20T05:20:08;102046.78;;;9.11;100.00
24788;BME280;12883;52.662;5.196;2023-02-20T05:22:34;102076.31;;;9.24;100.00
24788;BME280;12883;52.662;5.196;2023-02-20T05:24:59;102066.22;;;9.28;100.00
24788;BME280;12883;52.662;5.196;2023-02-20T05:27:26;102067.38;;;9.25;100.00
24788;BME280;12883;52.662;5.196;2023-02-20T05:29:54;102081.31;;;9.35;100.00
24788;BME280;12883;52.662;5.196;2023-02-20T05:32:21;102082.94;;;9.28;100.00
24788;BME280;12883;52.662;5.196;2023-02-20T05:34:46;102059.75;;;9.22;100.00
24788;BME280;12883;52.662;5.196;2023-02-20T05:37:13;102064.06;;;9.31;100.00
24788;BME280;12883;52.662;5.196;2023-02-20T05:39:39;102076.03;;;9.35;100.00
24788;BME280;12883;52.662;5.196;2023-02-20T05:42:05;102080.97;;;9.30;100.00
24788;BME280;12883;52.662;5.196;2023-02-20T05:44:31;102066.06;;;9.29;100.00
24788;BME280;12883;52.662;5.196;2023-02-20T05:46:57;102078.81;;;9.34;100.00
24788;BME280;12883;52.662;5.196;2023-02-20T05:49:22;102061.94;;;9.35;100.00
24788;BME280;12883;52.662;5.196;2023-02-20T05:51:48;102066.56;;;9.33;100.00
24788;BME280;12883;52.662;5.196;2023-02-20T05:54:15;102065.44;;;9.35;100.00
24788;BME280;12883;52.662;5.196;2023-02-20T05:56:45;102067.72;;;9.30;100.00
24788;BME280;12883;52.662;5.196;2023-02-20T05:59:11;102058.47;;;9.34;100.00
24788;BME280;12883;52.662;5.196;2023-02-20T06:01:37;102021.44;;;9.09;100.00
24788;BME280;12883;52.662;5.196;2023-02-20T06:04:02;102060.94;;;9.36;100.00
24788;BME280;12883;52.662;5.196;2023-02-20T06:06:36;102061.78;;;9.36;100.00
24788;BME280;12883;52.662;5.196;2023-02-20T06:09:03;102068.09;;;9.43;100.00
24788;BME280;12883;52.662;5.196;2023-02-20T06:11:31;102054.66;;;9.37;100.00
24788;BME280;12883;52.662;5.196;2023-02-20T06:13:56;102065.09;;;9.38;100.00
24788;BME280;12883;52.662;5.196;2023-02-20T06:16:23;102010.34;;;9.05;100.00
24788;BME280;12883;52.662;5.196;2023-02-20T06:18:49;102033.41;;;9.21;100.00
24788;BME280;12883;52.662;5.196;2023-02-20T06:21:14;102050.34;;;9.36;100.00
24788;BME280;12883;52.662;5.196;2023-02-20T06:23:42;102053.34;;;9.41;100.00
24788;BME280;12883;52.662;5.196;2023-02-20T06:26:10;102065.09;;;9.38;100.00
24788;BME280;12883;52.662;5.196;2023-02-20T06:28:37;102054.19;;;9.41;100.00
24788;BME280;12883;52.662;5.196;2023-02-20T06:31:03;102061.44;;;9.39;100.00
24788;BME280;12883;52.662;5.196;2023-02-20T06:33:28;102053.19;;;9.34;100.00
24788;BME280;12883;52.662;5.196;2023-02-20T06:35:54;102048.53;;;9.36;100.00
24788;BME280;12883;52.662;5.196;2023-02-20T06:38:20;102061.44;;;9.39;100.00
24788;BME280;12883;52.662;5.196;2023-02-20T06:40:45;102041.75;;;9.34;100.00
24788;BME280;12883;52.662;5.196;2023-02-20T06:43:10;102062.13;;;9.41;100.00
24788;BME280;12883;52.662;5.196;2023-02-20T06:45:36;102055.50;;;9.37;100.00
24788;BME280;12883;52.662;5.196;2023-02-20T06:48:02;102054.66;;;9.37;100.00
24788;BME280;12883;52.662;5.196;2023-02-20T06:50:27;102054.00;;;9.35;100.00
24788;BME280;12883;52.662;5.196;2023-02-20T06:52:53;102063.13;;;9.40;100.00
24788;BME280;12883;52.662;5.196;2023-02-20T06:55:18;102056.78;;;9.33;100.00
24788;BME280;12883;52.662;5.196;2023-02-20T06:57:44;102062.09;;;9.33;100.00
24788;BME280;12883;52.662;5.196;2023-02-20T07:00:10;102067.59;;;9.40;100.00
24788;BME280;12883;52.662;5.196;2023-02-20T07:02:35;102069.59;;;9.38;100.00
24788;BME280;12883;52.662;5.196;2023-02-20T07:05:01;102057.84;;;9.40;100.00
24788;BME280;12883;52.662;5.196;2023-02-20T07:07:26;102057.16;;;9.38;100.00
24788;BME280;12883;52.662;5.196;2023-02-20T07:09:52;102069.44;;;9.47;100.00
24788;BME280;12883;52.662;5.196;2023-02-20T07:12:17;102051.22;;;9.44;100.00
24788;BME280;12883;52.662;5.196;2023-02-20T07:14:43;102065.81;;;9.48;100.00
24788;BME280;12883;52.662;5.196;2023-02-20T07:17:08;102063.66;;;9.44;100.00
24788;BME280;12883;52.662;5.196;2023-02-20T07:19:33;102070.13;;;9.49;100.00
24788;BME280;12883;52.662;5.196;2023-02-20T07:21:59;102061.66;;;9.46;100.00
24788;BME280;12883;52.662;5.196;2023-02-20T07:24:24;102065.47;;;9.51;100.00
24788;BME280;12883;52.662;5.196;2023-02-20T07:26:49;102074.41;;;9.50;100.00
24788;BME280;12883;52.662;5.196;2023-02-20T07:29:15;102070.47;;;9.54;100.00
24788;BME280;12883;52.662;5.196;2023-02-20T07:31:40;102076.41;;;9.56;100.00
24788;BME280;12883;52.662;5.196;2023-02-20T07:34:05;102054.06;;;9.58;100.00
24788;BME280;12883;52.662;5.196;2023-02-20T07:36:31;102068.34;;;9.65;100.00
24788;BME280;12883;52.662;5.196;2023-02-20T07:38:59;101989.25;;;9.21;100.00
24788;BME280;12883;52.662;5.196;2023-02-20T07:41:27;102065.50;;;9.67;100.00
24788;BME280;12883;52.662;5.196;2023-02-20T07:44:01;102042.97;;;9.47;100.00
24788;BME280;12883;52.662;5.196;2023-02-20T07:46:27;102065.84;;;9.72;100.00
24788;BME280;12883;52.662;5.196;2023-02-20T07:48:52;102070.84;;;9.75;100.00
24788;BME280;12883;52.662;5.196;2023-02-20T07:51:18;102064.03;;;9.72;100.00
24788;BME280;12883;52.662;5.196;2023-02-20T07:53:48;102048.94;;;9.65;100.00
24788;BME280;12883;52.662;5.196;2023-02-20T07:56:14;102073.00;;;9.79;100.00
24788;BME280;12883;52.662;5.196;2023-02-20T07:58:39;102058.91;;;9.87;100.00
24788;BME280;12883;52.662;5.196;2023-02-20T08:01:05;102064.06;;;9.88;100.00
24788;BME280;12883;52.662;5.196;2023-02-20T08:03:30;102067.56;;;9.97;100.00
24788;BME280;12883;52.662;5.196;2023-02-20T08:05:55;102074.50;;;9.82;100.00
24788;BME280;12883;52.662;5.196;2023-02-20T08:08:21;102062.25;;;9.89;100.00
24788;BME280;12883;52.662;5.196;2023-02-20T08:10:49;102063.25;;;9.96;100.00
24788;BME280;12883;52.662;5.196;2023-02-20T08:13:14;102074.81;;;9.95;100.00
24788;BME280;12883;52.662;5.196;2023-02-20T08:15:39;102060.25;;;9.91;100.00
24788;BME280;12883;52.662;5.196;2023-02-20T08:18:06;102057.59;;;9.99;100.00
24788;BME280;12883;52.662;5.196;2023-02-20T08:20:31;102045.00;;;9.93;100.00
24788;BME280;12883;52.662;5.196;2023-02-20T08:22:56;102057.25;;;10.02;100.00
24788;BME280;12883;52.662;5.196;2023-02-20T08:25:25;102024.44;;;9.71;100.00
24788;BME280;12883;52.662;5.196;2023-02-20T08:27:50;102067.88;;;10.02;100.00
24788;BME280;12883;52.662;5.196;2023-02-20T08:30:22;102079.84;;;10.06;100.00
24788;BME280;12883;52.662;5.196;2023-02-20T08:32:53;102056.59;;;9.84;100.00
24788;BME280;12883;52.662;5.196;2023-02-20T08:35:19;102085.50;;;10.11;100.00
24788;BME280;12883;52.662;5.196;2023-02-20T08:37:45;102091.31;;;10.06;100.00
24788;BME280;12883;52.662;5.196;2023-02-20T08:40:11;102079.84;;;10.06;100.00
24788;BME280;12883;52.662;5.196;2023-02-20T08:42:37;102075.19;;;10.08;100.00
24788;BME280;12883;52.662;5.196;2023-02-20T08:45:03;102074.19;;;10.09;100.00
24788;BME280;12883;52.662;5.196;2023-02-20T08:47:29;102075.53;;;10.05;100.00
24788;BME280;12883;52.662;5.196;2023-02-20T08:49:55;102075.53;;;10.05;100.00
24788;BME280;12883;52.662;5.196;2023-02-20T08:52:20;102078.53;;;10.10;100.00
24788;BME280;12883;52.662;5.196;2023-02-20T08:54:46;102069.25;;;10.14;100.00
24788;BME280;12883;52.662;5.196;2023-02-20T08:57:12;102065.59;;;10.07;100.00
24788;BME280;12883;52.662;5.196;2023-02-20T08:59:38;102066.94;;;10.19;100.00
24788;BME280;12883;52.662;5.196;2023-02-20T09:02:04;102061.63;;;10.19;100.00
24788;BME280;12883;52.662;5.196;2023-02-20T09:04:30;102054.66;;;10.18;100.00
24788;BME280;12883;52.662;5.196;2023-02-20T09:06:55;102053.16;;;10.23;100.00
24788;BME280;12883;52.662;5.196;2023-02-20T09:09:20;102066.94;;;10.19;100.00
24788;BME280;12883;52.662;5.196;2023-02-20T09:11:46;102035.75;;;10.13;100.00
24788;BME280;12883;52.662;5.196;2023-02-20T09:14:11;102036.06;;;10.34;100.00
24788;BME280;12883;52.662;5.196;2023-02-20T09:16:37;102040.56;;;10.33;100.00
24788;BME280;12883;52.662;5.196;2023-02-20T09:19:06;102008.75;;;10.09;100.00
24788;BME280;12883;52.662;5.196;2023-02-20T09:21:32;102050.69;;;10.38;100.00
24788;BME280;12883;52.662;5.196;2023-02-20T09:23:58;102032.09;;;10.38;100.00
24788;BME280;12883;52.662;5.196;2023-02-20T09:26:23;102065.59;;;10.47;100.00
24788;BME280;12883;52.662;5.196;2023-02-20T09:28:48;102036.03;;;10.50;100.00
24788;BME280;12883;52.662;5.196;2023-02-20T09:31:14;102052.97;;;10.49;100.00
24788;BME280;12883;52.662;5.196;2023-02-20T09:33:43;101993.97;;;10.31;100.00
24788;BME280;12883;52.662;5.196;2023-02-20T09:36:09;101989.25;;;10.57;100.00
24788;BME280;12883;52.662;5.196;2023-02-20T09:38:34;102015.78;;;10.57;100.00
24788;BME280;12883;52.662;5.196;2023-02-20T09:41:00;102028.59;;;10.61;100.00
24788;BME280;12883;52.662;5.196;2023-02-20T09:43:44;102040.16;;;10.60;100.00
24788;BME280;12883;52.662;5.196;2023-02-20T09:48:48;102033.88;;;10.69;100.00
24788;BME280;12883;52.662;5.196;2023-02-20T09:51:20;102037.34;;;10.70;100.00
24788;BME280;12883;52.662;5.196;2023-02-20T09:54:15;102017.09;;;10.69;100.00
24788;BME280;12883;52.662;5.196;2023-02-20T09:56:51;102009.97;;;10.69;100.00
24788;BME280;12883;52.662;5.196;2023-02-20T10:01:58;102026.00;;;10.84;100.00
24788;BME280;12883;52.662;5.196;2023-02-20T10:04:37;101999.81;;;10.81;100.00
24788;BME280;12883;52.662;5.196;2023-02-20T10:07:14;102040.81;;;10.78;100.00
24788;BME280;12883;52.662;5.196;2023-02-20T10:09:41;102049.09;;;10.83;100.00
24788;BME280;12883;52.662;5.196;2023-02-20T10:20:22;102056.88;;;10.85;100.00
24788;BME280;12883;52.662;5.196;2023-02-20T10:25:37;102008.81;;;10.64;100.00
24788;BME280;12883;52.662;5.196;2023-02-20T10:28:14;102038.09;;;10.94;100.00
24788;BME280;12883;52.662;5.196;2023-02-20T10:30:49;102056.16;;;10.99;100.00
24788;BME280;12883;52.662;5.196;2023-02-20T10:33:27;102052.81;;;11.05;100.00
24788;BME280;12883;52.662;5.196;2023-02-20T10:36:00;102057.66;;;11.09;100.00
24788;BME280;12883;52.662;5.196;2023-02-20T10:38:33;102054.47;;;11.06;100.00
24788;BME280;12883;52.662;5.196;2023-02-20T10:41:09;102011.41;;;10.88;100.00
24788;BME280;12883;52.662;5.196;2023-02-20T10:43:48;102017.28;;;11.06;100.00
24788;BME280;12883;52.662;5.196;2023-02-20T10:46:39;102020.06;;;11.20;100.00
24788;BME280;12883;52.662;5.196;2023-02-20T10:49:12;102032.84;;;11.17;100.00
24788;BME280;12883;52.662;5.196;2023-02-20T10:51:44;102027.53;;;11.17;100.00
24788;BME280;12883;52.662;5.196;2023-02-20T10:54:35;102050.97;;;11.13;100.00
24788;BME280;12883;52.662;5.196;2023-02-20T10:57:21;102049.94;;;11.22;100.00
24788;BME280;12883;52.662;5.196;2023-02-20T10:59:55;102056.94;;;11.15;100.00
24788;BME280;12883;52.662;5.196;2023-02-20T11:02:29;102072.53;;;11.18;100.00
24788;BME280;12883;52.662;5.196;2023-02-20T11:05:04;102064.56;;;11.18;100.00
24788;BME280;12883;52.662;5.196;2023-02-20T11:07:32;102047.09;;;11.24;100.00
24788;BME280;12883;52.662;5.196;2023-02-20T11:09:57;102018.56;;;11.18;100.00
24788;BME280;12883;52.662;5.196;2023-02-20T11:12:28;102053.25;;;11.24;100.00
24788;BME280;12883;52.662;5.196;2023-02-20T11:14:59;102024.50;;;11.28;100.00
24788;BME280;12883;52.662;5.196;2023-02-20T11:17:27;102039.97;;;11.24;100.00
24788;BME280;12883;52.662;5.196;2023-02-20T11:19:55;102038.44;;;11.30;100.00
24788;BME280;12883;52.662;5.196;2023-02-20T11:27:57;102038.44;;;11.30;100.00
24788;BME280;12883;52.662;5.196;2023-02-20T11:30:33;102055.56;;;11.27;100.00
24788;BME280;12883;52.662;5.196;2023-02-20T11:33:23;102046.63;;;11.20;100.00
24788;BME280;12883;52.662;5.196;2023-02-20T11:35:56;102043.44;;;11.25;100.00
24788;BME280;12883;52.662;5.196;2023-02-20T11:38:26;102024.56;;;11.20;100.00
24788;BME280;12883;52.662;5.196;2023-02-20T11:43:31;102054.94;;;11.17;100.00
24788;BME280;12883;52.662;5.196;2023-02-20T11:54:18;102045.78;;;11.28;100.00
24788;BME280;12883;52.662;5.196;2023-02-20T11:57:04;102006.66;;;11.14;100.00
24788;BME280;12883;52.662;5.196;2023-02-20T11:59:35;102040.97;;;11.23;100.00
24788;BME280;12883;52.662;5.196;2023-02-20T12:04:59;102031.69;;;11.19;100.00
24788;BME280;12883;52.662;5.196;2023-02-20T12:07:31;102014.91;;;11.27;100.00
24788;BME280;12883;52.662;5.196;2023-02-20T12:10:02;102025.03;;;11.23;100.00
24788;BME280;12883;52.662;5.196;2023-02-20T12:12:31;102020.97;;;11.35;100.00
24788;BME280;12883;52.662;5.196;2023-02-20T12:14:57;102026.13;;;11.37;100.00
24788;BME280;12883;52.662;5.196;2023-02-20T12:17:45;102027.66;;;11.31;100.00
24788;BME280;12883;52.662;5.196;2023-02-20T12:20:18;102010.97;;;11.45;100.00
24788;BME280;12883;52.662;5.196;2023-02-20T12:22:55;102007.59;;;11.51;100.00
24788;BME280;12883;52.662;5.196;2023-02-20T12:25:27;102000.66;;;11.42;100.00
24788;BME280;12883;52.662;5.196;2023-02-20T12:28:21;102007.56;;;11.59;100.00
24788;BME280;12883;52.662;5.196;2023-02-20T12:31:03;102008.72;;;11.57;100.00
24788;BME280;12883;52.662;5.196;2023-02-20T12:36:29;102015.66;;;11.66;100.00
24788;BME280;12883;52.662;5.196;2023-02-20T12:39:05;102010.19;;;11.67;100.00
24788;BME280;12883;52.662;5.196;2023-02-20T12:41:41;102006.34;;;11.70;100.00
24788;BME280;12883;52.662;5.196;2023-02-20T12:46:57;102014.66;;;11.67;100.00
24788;BME280;12883;52.662;5.196;2023-02-20T12:55:03;102012.25;;;11.80;100.00
24788;BME280;12883;52.662;5.196;2023-02-20T12:57:43;102014.56;;;11.83;100.00
24788;BME280;12883;52.662;5.196;2023-02-20T13:00:35;102017.16;;;11.91;100.00
24788;BME280;12883;52.662;5.196;2023-02-20T13:03:22;101995.09;;;11.82;100.00
24788;BME280;12883;52.662;5.196;2023-02-20T13:05:49;102013.94;;;11.95;100.00
24788;BME280;12883;52.662;5.196;2023-02-20T13:08:28;101995.50;;;11.94;100.00
24788;BME280;12883;52.662;5.196;2023-02-20T13:10:58;102004.63;;;11.99;100.00
24788;BME280;12883;52.662;5.196;2023-02-20T13:13:31;102008.47;;;11.97;100.00
24788;BME280;12883;52.662;5.196;2023-02-20T13:16:08;102005.09;;;12.03;100.00
24788;BME280;12883;52.662;5.196;2023-02-20T13:18:50;101997.13;;;12.03;100.00
24788;BME280;12883;52.662;5.196;2023-02-20T13:21:22;101954.19;;;11.83;100.00
24788;BME280;12883;52.662;5.196;2023-02-20T13:23:49;102015.38;;;12.06;100.00
24788;BME280;12883;52.662;5.196;2023-02-20T13:29:16;102010.75;;;12.00;100.00
24788;BME280;12883;52.662;5.196;2023-02-20T13:31:49;102013.72;;;12.05;100.00
24788;BME280;12883;52.662;5.196;2023-02-20T13:36:42;101998.50;;;12.13;100.00
24788;BME280;12883;52.662;5.196;2023-02-20T13:44:43;102019.59;;;12.15;100.00
24788;BME280;12883;52.662;5.196;2023-02-20T13:49:57;102023.81;;;12.09;100.00
24788;BME280;12883;52.662;5.196;2023-02-20T13:52:42;102036.53;;;11.99;100.00
24788;BME280;12883;52.662;5.196;2023-02-20T14:00:46;102019.88;;;11.83;100.00
24788;BME280;12883;52.662;5.196;2023-02-20T14:08:29;101983.34;;;11.77;100.00
24788;BME280;12883;52.662;5.196;2023-02-20T14:11:03;101968.22;;;11.77;100.00
24788;BME280;12883;52.662;5.196;2023-02-20T14:13:29;101976.72;;;11.73;100.00
24788;BME280;12883;52.662;5.196;2023-02-20T14:15:56;101998.00;;;11.73;100.00
24788;BME280;12883;52.662;5.196;2023-02-20T14:18:26;101993.84;;;11.70;100.00
24788;BME280;12883;52.662;5.196;2023-02-20T14:21:07;101991.25;;;11.62;100.00
24788;BME280;12883;52.662;5.196;2023-02-20T14:23:34;101980.28;;;11.65;100.00
24788;BME280;12883;52.662;5.196;2023-02-20T14:26:02;101983.81;;;11.58;100.00
24788;BME280;12883;52.662;5.196;2023-02-20T14:28:30;101997.31;;;11.48;100.00